sensor_id;sensor_type;location;lat;lon;timestamp;pressure;altitude;pressure_sealevel;temperature;humidity
72086;BME280;64750;52.134;5.424;2023-02-18T00:02:19;102366.81;;;9.70;91.87
72086;BME280;64750;52.134;5.424;2023-02-18T00:04:45;102375.56;;;9.71;91.83
72086;BME280;64750;52.134;5.424;2023-02-18T00:07:12;102367.63;;;9.72;92.08
72086;BME280;64750;52.134;5.424;2023-02-18T00:09:38;102371.97;;;9.73;92.05
72086;BME280;64750;52.134;5.424;2023-02-18T00:12:05;102371.06;;;9.74;92.18
72086;BME280;64750;52.134;5.424;2023-02-18T00:14:31;102367.50;;;9.77;92.03
72086;BME280;64750;52.134;5.424;2023-02-18T00:16:57;102371.88;;;9.76;92.20
72086;BME280;64750;52.134;5.424;2023-02-18T00:19:24;102373.78;;;9.71;92.08
72086;BME280;64750;52.134;5.424;2023-02-18T00:21:50;102371.06;;;9.74;92.08
72086;BME280;64750;52.134;5.424;2023-02-18T00:24:17;102368.59;;;9.69;92.25
72086;BME280;64750;52.134;5.424;2023-02-18T00:26:44;102366.88;;;9.68;92.18
72086;BME280;64750;52.134;5.424;2023-02-18T00:29:11;102362.50;;;9.69;92.25
72086;BME280;64750;52.134;5.424;2023-02-18T00:31:38;102354.63;;;9.67;92.20
72086;BME280;64750;52.134;5.424;2023-02-18T00:34:05;102354.63;;;9.67;92.23
72086;BME280;64750;52.134;5.424;2023-02-18T00:36:32;102349.38;;;9.69;92.41
72086;BME280;64750;52.134;5.424;2023-02-18T00:39:00;102354.69;;;9.66;92.40
72086;BME280;64750;52.134;5.424;2023-02-18T00:41:29;102354.75;;;9.64;92.50
72086;BME280;64750;52.134;5.424;2023-02-18T00:43:56;102346.94;;;9.63;92.63
72086;BME280;64750;52.134;5.424;2023-02-18T00:46:23;102353.88;;;9.64;92.37
72086;BME280;64750;52.134;5.424;2023-02-18T00:48:50;102350.34;;;9.65;92.47
72086;BME280;64750;52.134;5.424;2023-02-18T00:51:17;102346.06;;;9.62;92.42
72086;BME280;64750;52.134;5.424;2023-02-18T00:53:43;102342.59;;;9.62;92.67
72086;BME280;64750;52.134;5.424;2023-02-18T00:56:10;102340.75;;;9.64;92.48
72086;BME280;64750;52.134;5.424;2023-02-18T00:58:37;102339.97;;;9.62;92.61
72086;BME280;64750;52.134;5.424;2023-02-18T01:01:05;102334.78;;;9.59;92.61
72086;BME280;64750;52.134;5.424;2023-02-18T01:03:33;102345.41;;;9.56;92.68
72086;BME280;64750;52.134;5.424;2023-02-18T01:06:00;102342.72;;;9.57;92.74
72086;BME280;64750;52.134;5.424;2023-02-18T01:08:26;102334.91;;;9.56;92.94
72086;BME280;64750;52.134;5.424;2023-02-18T01:10:54;102334.06;;;9.55;92.91
72086;BME280;64750;52.134;5.424;2023-02-18T01:13:22;102334.06;;;9.53;92.95
72086;BME280;64750;52.134;5.424;2023-02-18T01:15:49;102339.44;;;9.50;92.83
72086;BME280;64750;52.134;5.424;2023-02-18T01:18:16;102333.38;;;9.48;92.83
72086;BME280;64750;52.134;5.424;2023-02-18T01:20:43;102333.53;;;9.44;93.01
72086;BME280;64750;52.134;5.424;2023-02-18T01:23:11;102336.22;;;9.42;93.21
72086;BME280;64750;52.134;5.424;2023-02-18T01:25:38;102336.22;;;9.42;93.01
72086;BME280;64750;52.134;5.424;2023-02-18T01:28:07;102333.66;;;9.39;93.05
72086;BME280;64750;52.134;5.424;2023-02-18T01:30:33;102338.91;;;9.39;93.16
72086;BME280;64750;52.134;5.424;2023-02-18T01:33:00;102336.47;;;9.33;93.41
72086;BME280;64750;52.134;5.424;2023-02-18T01:35:27;102340.91;;;9.31;93.44
72086;BME280;64750;52.134;5.424;2023-02-18T01:37:53;102334.81;;;9.30;93.18
72086;BME280;64750;52.134;5.424;2023-02-18T01:40:22;102328.69;;;9.30;93.55
72086;BME280;64750;52.134;5.424;2023-02-18T01:42:49;102324.41;;;9.27;93.35
72086;BME280;64750;52.134;5.424;2023-02-18T01:50:32;102311.34;;;9.26;93.72
72086;BME280;64750;52.134;5.424;2023-02-18T01:53:01;102314.03;;;9.23;93.48
72086;BME280;64750;52.134;5.424;2023-02-18T01:55:28;102302.72;;;9.22;93.75
72086;BME280;64750;52.134;5.424;2023-02-18T01:57:54;102298.28;;;9.24;93.84
72086;BME280;64750;52.134;5.424;2023-02-18T02:00:21;102296.56;;;9.23;93.75
72086;BME280;64750;52.134;5.424;2023-02-18T02:02:50;102301.69;;;9.26;93.89
72086;BME280;64750;52.134;5.424;2023-02-18T02:05:20;102306.94;;;9.26;93.62
72086;BME280;64750;52.134;5.424;2023-02-18T02:07:49;102304.44;;;9.22;93.92
72086;BME280;64750;52.134;5.424;2023-02-18T02:10:18;102299.22;;;9.22;93.82
72086;BME280;64750;52.134;5.424;2023-02-18T02:12:56;102292.16;;;9.24;93.76
72086;BME280;64750;52.134;5.424;2023-02-18T02:15:43;102275.66;;;9.20;93.98
72086;BME280;64750;52.134;5.424;2023-02-18T02:18:34;102271.31;;;9.19;93.95
72086;BME280;64750;52.134;5.424;2023-02-18T02:24:28;102267.72;;;9.22;94.37
72086;BME280;64750;52.134;5.424;2023-02-18T02:27:11;102253.72;;;9.23;94.41
72086;BME280;64750;52.134;5.424;2023-02-18T02:33:13;102236.09;;;9.26;94.55
72086;BME280;64750;52.134;5.424;2023-02-18T02:38:24;102213.47;;;9.24;94.53
72086;BME280;64750;52.134;5.424;2023-02-18T02:41:06;102199.44;;;9.25;94.29
72086;BME280;64750;52.134;5.424;2023-02-18T02:48:53;102179.28;;;9.25;94.72
72086;BME280;64750;52.134;5.424;2023-02-18T02:51:31;102173.16;;;9.26;94.75
72086;BME280;64750;52.134;5.424;2023-02-18T02:54:23;102169.63;;;9.27;94.88
72086;BME280;64750;52.134;5.424;2023-02-18T02:59:35;102158.28;;;9.27;94.93
72086;BME280;64750;52.134;5.424;2023-02-18T03:05:38;102148.63;;;9.27;95.46
72086;BME280;64750;52.134;5.424;2023-02-18T03:08:35;102145.03;;;9.30;95.45
72086;BME280;64750;52.134;5.424;2023-02-18T03:11:05;102138.06;;;9.29;95.54
72086;BME280;64750;52.134;5.424;2023-02-18T03:14:04;102134.56;;;9.30;95.98
72086;BME280;64750;52.134;5.424;2023-02-18T03:19:11;102132.75;;;9.32;96.04
72086;BME280;64750;52.134;5.424;2023-02-18T03:21:57;102133.59;;;9.32;96.26
72086;BME280;64750;52.134;5.424;2023-02-18T03:24:29;102123.94;;;9.33;96.11
72086;BME280;64750;52.134;5.424;2023-02-18T03:27:03;102122.13;;;9.35;96.49
72086;BME280;64750;52.134;5.424;2023-02-18T03:29:32;102116.75;;;9.38;96.39
72086;BME280;64750;52.134;5.424;2023-02-18T03:32:02;102108.00;;;9.39;96.59
72086;BME280;64750;52.134;5.424;2023-02-18T03:34:35;102106.25;;;9.38;96.77
72086;BME280;64750;52.134;5.424;2023-02-18T03:37:04;102098.38;;;9.40;96.80
72086;BME280;64750;52.134;5.424;2023-02-18T03:39:33;102085.25;;;9.40;96.87
72086;BME280;64750;52.134;5.424;2023-02-18T03:42:00;102079.13;;;9.39;97.19
72086;BME280;64750;52.134;5.424;2023-02-18T03:44:26;102087.88;;;9.40;97.32
72086;BME280;64750;52.134;5.424;2023-02-18T03:46:53;102075.59;;;9.40;97.15
72086;BME280;64750;52.134;5.424;2023-02-18T03:49:19;102065.91;;;9.42;97.17
72086;BME280;64750;52.134;5.424;2023-02-18T03:51:46;102065.91;;;9.42;97.05
72086;BME280;64750;52.134;5.424;2023-02-18T03:54:12;102061.50;;;9.43;97.09
72086;BME280;64750;52.134;5.424;2023-02-18T03:56:40;102067.59;;;9.43;96.99
72086;BME280;64750;52.134;5.424;2023-02-18T03:59:06;102058.81;;;9.44;97.12
72086;BME280;64750;52.134;5.424;2023-02-18T04:01:33;102052.72;;;9.44;97.01
72086;BME280;64750;52.134;5.424;2023-02-18T04:04:00;102057.97;;;9.44;97.28
72086;BME280;64750;52.134;5.424;2023-02-18T04:06:28;102050.03;;;9.45;97.29
72086;BME280;64750;52.134;5.424;2023-02-18T04:08:54;102043.88;;;9.46;97.37
72086;BME280;64750;52.134;5.424;2023-02-18T04:11:21;102032.50;;;9.47;97.12
72086;BME280;64750;52.134;5.424;2023-02-18T04:13:47;102035.13;;;9.47;97.27
72086;BME280;64750;52.134;5.424;2023-02-18T04:16:14;102036.81;;;9.48;97.50
72086;BME280;64750;52.134;5.424;2023-02-18T04:18:40;102020.16;;;9.49;97.42
72086;BME280;64750;52.134;5.424;2023-02-18T04:21:06;102015.72;;;9.51;97.35
72086;BME280;64750;52.134;5.424;2023-02-18T04:23:33;102018.34;;;9.51;97.32
72086;BME280;64750;52.134;5.424;2023-02-18T04:25:59;102017.44;;;9.52;97.31
72086;BME280;64750;52.134;5.424;2023-02-18T04:28:26;102005.22;;;9.51;97.37
72086;BME280;64750;52.134;5.424;2023-02-18T04:30:52;102004.31;;;9.52;97.67
72086;BME280;64750;52.134;5.424;2023-02-18T04:33:19;102006.00;;;9.53;97.65
72086;BME280;64750;52.134;5.424;2023-02-18T04:35:45;102000.75;;;9.53;97.44
72086;BME280;64750;52.134;5.424;2023-02-18T04:38:11;102009.44;;;9.56;97.50
72086;BME280;64750;52.134;5.424;2023-02-18T04:40:38;102010.34;;;9.55;97.53
72086;BME280;64750;52.134;5.424;2023-02-18T04:43:04;102004.19;;;9.56;97.59
72086;BME280;64750;52.134;5.424;2023-02-18T04:45:30;101988.44;;;9.56;97.50
72086;BME280;64750;52.134;5.424;2023-02-18T04:47:57;101982.28;;;9.57;97.53
72086;BME280;64750;52.134;5.424;2023-02-18T04:50:23;101972.69;;;9.56;97.44
72086;BME280;64750;52.134;5.424;2023-02-18T04:52:50;101964.81;;;9.56;97.52
72086;BME280;64750;52.134;5.424;2023-02-18T04:55:16;101967.44;;;9.56;97.52
72086;BME280;64750;52.134;5.424;2023-02-18T04:57:43;101977.94;;;9.56;97.45
72086;BME280;64750;52.134;5.424;2023-02-18T05:00:13;101969.22;;;9.55;97.27
72086;BME280;64750;52.134;5.424;2023-02-18T05:02:40;101956.09;;;9.55;97.45
72086;BME280;64750;52.134;5.424;2023-02-18T05:05:07;101964.00;;;9.53;97.31
72086;BME280;64750;52.134;5.424;2023-02-18T05:07:33;101964.00;;;9.53;97.32
72086;BME280;64750;52.134;5.424;2023-02-18T05:10:00;101967.56;;;9.52;97.30
72086;BME280;64750;52.134;5.424;2023-02-18T05:12:26;101972.81;;;9.52;97.55
72086;BME280;64750;52.134;5.424;2023-02-18T05:14:53;101965.84;;;9.51;97.45
72086;BME280;64750;52.134;5.424;2023-02-18T05:17:19;101965.84;;;9.51;97.53
72086;BME280;64750;52.134;5.424;2023-02-18T05:19:46;101965.84;;;9.51;97.45
72086;BME280;64750;52.134;5.424;2023-02-18T05:22:12;101969.31;;;9.52;97.27
72086;BME280;64750;52.134;5.424;2023-02-18T05:24:39;101969.38;;;9.50;97.29
72086;BME280;64750;52.134;5.424;2023-02-18T05:27:05;101964.13;;;9.50;97.38
72086;BME280;64750;52.134;5.424;2023-02-18T05:29:31;101953.69;;;9.49;97.24
72086;BME280;64750;52.134;5.424;2023-02-18T05:31:58;101957.16;;;9.49;97.42
72086;BME280;64750;52.134;5.424;2023-02-18T05:34:24;101951.91;;;9.49;97.49
72086;BME280;64750;52.134;5.424;2023-02-18T05:36:51;101946.66;;;9.49;97.55
72086;BME280;64750;52.134;5.424;2023-02-18T05:39:18;101951.91;;;9.49;97.49
72086;BME280;64750;52.134;5.424;2023-02-18T05:41:44;101944.94;;;9.48;97.83
72086;BME280;64750;52.134;5.424;2023-02-18T05:44:10;101930.16;;;9.47;97.50
72086;BME280;64750;52.134;5.424;2023-02-18T05:47:03;101928.28;;;9.49;97.55
72086;BME280;64750;52.134;5.424;2023-02-18T05:49:30;101925.66;;;9.49;97.59
72086;BME280;64750;52.134;5.424;2023-02-18T05:51:58;101926.53;;;9.50;97.71
72086;BME280;64750;52.134;5.424;2023-02-18T05:54:25;101932.63;;;9.50;97.47
72086;BME280;64750;52.134;5.424;2023-02-18T05:56:52;101922.97;;;9.51;97.82
72086;BME280;64750;52.134;5.424;2023-02-18T05:59:19;101922.94;;;9.52;97.76
72086;BME280;64750;52.134;5.424;2023-02-18T06:01:46;101911.56;;;9.52;97.78
72086;BME280;64750;52.134;5.424;2023-02-18T06:04:13;101910.66;;;9.53;97.80
72086;BME280;64750;52.134;5.424;2023-02-18T06:06:40;101915.06;;;9.52;97.77
72086;BME280;64750;52.134;5.424;2023-02-18T06:09:07;101922.88;;;9.54;97.75
72086;BME280;64750;52.134;5.424;2023-02-18T06:11:33;101924.59;;;9.55;97.74
72086;BME280;64750;52.134;5.424;2023-02-18T06:14:00;101933.31;;;9.56;97.42
72086;BME280;64750;52.134;5.424;2023-02-18T06:16:27;101930.75;;;9.54;97.51
72086;BME280;64750;52.134;5.424;2023-02-18T06:18:54;101930.69;;;9.56;97.62
72086;BME280;64750;52.134;5.424;2023-02-18T06:21:20;101941.19;;;9.56;97.34
72086;BME280;64750;52.134;5.424;2023-02-18T06:23:47;101922.75;;;9.57;97.44
72086;BME280;64750;52.134;5.424;2023-02-18T06:26:13;101917.56;;;9.56;97.30
72086;BME280;64750;52.134;5.424;2023-02-18T06:28:40;101938.50;;;9.57;97.30
72086;BME280;64750;52.134;5.424;2023-02-18T06:31:06;101921.91;;;9.57;97.39
72086;BME280;64750;52.134;5.424;2023-02-18T06:33:33;101930.56;;;9.59;97.26
72086;BME280;64750;52.134;5.424;2023-02-18T06:36:03;101937.59;;;9.58;97.40
72086;BME280;64750;52.134;5.424;2023-02-18T06:38:37;101921.78;;;9.60;97.36
72086;BME280;64750;52.134;5.424;2023-02-18T06:41:03;101920.06;;;9.59;97.08
72086;BME280;64750;52.134;5.424;2023-02-18T06:43:30;101928.00;;;9.57;97.05
72086;BME280;64750;52.134;5.424;2023-02-18T06:45:57;101925.31;;;9.59;96.97
72086;BME280;64750;52.134;5.424;2023-02-18T06:48:23;101933.25;;;9.57;97.27
72086;BME280;64750;52.134;5.424;2023-02-18T06:50:50;101925.38;;;9.57;96.98
72086;BME280;64750;52.134;5.424;2023-02-18T06:53:16;101932.41;;;9.57;97.07
72086;BME280;64750;52.134;5.424;2023-02-18T06:55:43;101934.16;;;9.56;97.07
72086;BME280;64750;52.134;5.424;2023-02-18T06:58:11;101942.09;;;9.55;97.05
72086;BME280;64750;52.134;5.424;2023-02-18T07:00:37;101926.41;;;9.53;96.98
72086;BME280;64750;52.134;5.424;2023-02-18T07:03:04;101930.81;;;9.52;97.03
72086;BME280;64750;52.134;5.424;2023-02-18T07:05:31;101921.28;;;9.50;97.23
72086;BME280;64750;52.134;5.424;2023-02-18T07:07:58;101920.41;;;9.49;97.31
72086;BME280;64750;52.134;5.424;2023-02-18T07:10:24;101913.44;;;9.50;97.35
72086;BME280;64750;52.134;5.424;2023-02-18T07:12:50;101911.72;;;9.49;97.11
72086;BME280;64750;52.134;5.424;2023-02-18T07:15:17;101923.13;;;9.48;96.92
72086;BME280;64750;52.134;5.424;2023-02-18T07:17:46;101919.59;;;9.49;97.23
72086;BME280;64750;52.134;5.424;2023-02-18T07:20:12;101913.47;;;9.48;97.04
72086;BME280;64750;52.134;5.424;2023-02-18T07:22:39;101889.91;;;9.47;96.80
72086;BME280;64750;52.134;5.424;2023-02-18T07:25:05;101917.88;;;9.48;96.96
72086;BME280;64750;52.134;5.424;2023-02-18T07:27:32;101929.19;;;9.48;96.88
72086;BME280;64750;52.134;5.424;2023-02-18T07:29:58;101921.34;;;9.48;97.08
72086;BME280;64750;52.134;5.424;2023-02-18T07:32:25;101922.28;;;9.47;97.04
72086;BME280;64750;52.134;5.424;2023-02-18T07:34:51;101912.69;;;9.46;96.78
72086;BME280;64750;52.134;5.424;2023-02-18T07:37:19;101904.88;;;9.45;96.88
72086;BME280;64750;52.134;5.424;2023-02-18T07:39:46;101918.00;;;9.45;96.98
72086;BME280;64750;52.134;5.424;2023-02-18T07:42:12;101910.16;;;9.43;96.75
72086;BME280;64750;52.134;5.424;2023-02-18T07:44:40;101906.63;;;9.44;96.79
72086;BME280;64750;52.134;5.424;2023-02-18T07:47:08;101910.16;;;9.43;96.62
72086;BME280;64750;52.134;5.424;2023-02-18T07:49:37;101891.78;;;9.43;96.55
72086;BME280;64750;52.134;5.424;2023-02-18T07:52:03;101900.53;;;9.44;96.44
72086;BME280;64750;52.134;5.424;2023-02-18T07:54:31;101903.16;;;9.44;96.38
72086;BME280;64750;52.134;5.424;2023-02-18T07:56:57;101909.25;;;9.44;96.18
72086;BME280;64750;52.134;5.424;2023-02-18T07:59:23;101911.88;;;9.44;96.03
72086;BME280;64750;52.134;5.424;2023-02-18T08:01:50;101910.16;;;9.43;95.63
72086;BME280;64750;52.134;5.424;2023-02-18T08:04:16;101910.22;;;9.42;95.58
72086;BME280;64750;52.134;5.424;2023-02-18T08:06:45;101924.22;;;9.42;95.36
72086;BME280;64750;52.134;5.424;2023-02-18T08:09:13;101926.84;;;9.42;95.32
72086;BME280;64750;52.134;5.424;2023-02-18T08:11:40;101926.03;;;9.40;95.13
72086;BME280;64750;52.134;5.424;2023-02-18T08:14:07;101925.19;;;9.40;94.92
72086;BME280;64750;52.134;5.424;2023-02-18T08:16:33;101939.22;;;9.39;94.86
72086;BME280;64750;52.134;5.424;2023-02-18T08:19:01;101935.78;;;9.36;94.68
72086;BME280;64750;52.134;5.424;2023-02-18T08:21:29;101925.28;;;9.36;94.30
72086;BME280;64750;52.134;5.424;2023-02-18T08:23:57;101931.50;;;9.34;94.27
72086;BME280;64750;52.134;5.424;2023-02-18T08:26:23;101934.19;;;9.32;94.01
72086;BME280;64750;52.134;5.424;2023-02-18T08:28:50;101941.25;;;9.30;93.95
72086;BME280;64750;52.134;5.424;2023-02-18T08:31:20;101943.94;;;9.29;93.88
72086;BME280;64750;52.134;5.424;2023-02-18T08:33:47;101947.47;;;9.28;93.92
72086;BME280;64750;52.134;5.424;2023-02-18T08:36:14;101946.78;;;9.23;94.11
72086;BME280;64750;52.134;5.424;2023-02-18T08:38:40;101948.50;;;9.24;93.90
72086;BME280;64750;52.134;5.424;2023-02-18T08:41:08;101947.69;;;9.22;94.23
72086;BME280;64750;52.134;5.424;2023-02-18T08:43:35;101948.56;;;9.22;94.49
72086;BME280;64750;52.134;5.424;2023-02-18T08:46:02;101948.63;;;9.21;94.31
72086;BME280;64750;52.134;5.424;2023-02-18T08:48:29;101946.91;;;9.19;94.44
72086;BME280;64750;52.134;5.424;2023-02-18T08:50:56;101942.56;;;9.18;94.34
72086;BME280;64750;52.134;5.424;2023-02-18T08:53:22;101941.72;;;9.18;94.31
72086;BME280;64750;52.134;5.424;2023-02-18T08:55:49;101944.34;;;9.18;94.20
72086;BME280;64750;52.134;5.424;2023-02-18T08:58:16;101947.00;;;9.16;94.23
72086;BME280;64750;52.134;5.424;2023-02-18T09:00:43;101943.53;;;9.16;94.25
72086;BME280;64750;52.134;5.424;2023-02-18T09:03:14;101943.59;;;9.14;93.96
72086;BME280;64750;52.134;5.424;2023-02-18T09:05:40;101948.94;;;9.11;93.89
72086;BME280;64750;52.134;5.424;2023-02-18T09:08:06;101962.03;;;9.11;93.63
72086;BME280;64750;52.134;5.424;2023-02-18T09:10:33;101962.09;;;9.10;93.70
72086;BME280;64750;52.134;5.424;2023-02-18T09:13:00;101963.88;;;9.09;94.06
72086;BME280;64750;52.134;5.424;2023-02-18T09:15:26;101966.50;;;9.09;93.54
72086;BME280;64750;52.134;5.424;2023-02-18T09:17:53;101962.16;;;9.08;93.50
72086;BME280;64750;52.134;5.424;2023-02-18T09:20:19;101964.78;;;9.08;93.68
72086;BME280;64750;52.134;5.424;2023-02-18T09:22:46;101959.56;;;9.08;93.74
72086;BME280;64750;52.134;5.424;2023-02-18T09:25:12;101948.16;;;9.09;93.53
72086;BME280;64750;52.134;5.424;2023-02-18T09:27:39;101972.53;;;9.11;93.42
72086;BME280;64750;52.134;5.424;2023-02-18T09:30:05;101958.53;;;9.12;93.64
72086;BME280;64750;52.134;5.424;2023-02-18T09:32:32;101963.69;;;9.14;93.55
72086;BME280;64750;52.134;5.424;2023-02-18T09:35:01;101956.72;;;9.14;93.10
72086;BME280;64750;52.134;5.424;2023-02-18T09:37:28;101968.03;;;9.15;93.20
72086;BME280;64750;52.134;5.424;2023-02-18T09:39:54;101958.44;;;9.15;92.88
72086;BME280;64750;52.134;5.424;2023-02-18T09:42:27;101974.09;;;9.17;92.88
72086;BME280;64750;52.134;5.424;2023-02-18T09:44:57;101978.38;;;9.19;92.38
72086;BME280;64750;52.134;5.424;2023-02-18T09:47:41;101980.09;;;9.21;92.49
72086;BME280;64750;52.134;5.424;2023-02-18T09:52:48;101984.41;;;9.22;92.80
72086;BME280;64750;52.134;5.424;2023-02-18T09:57:49;101988.75;;;9.23;92.32
72086;BME280;64750;52.134;5.424;2023-02-18T10:02:58;101985.16;;;9.25;92.35
72086;BME280;64750;52.134;5.424;2023-02-18T10:05:27;101975.53;;;9.26;92.28
72086;BME280;64750;52.134;5.424;2023-02-18T10:07:59;101985.91;;;9.29;91.99
72086;BME280;64750;52.134;5.424;2023-02-18T10:10:42;101998.97;;;9.30;91.61
72086;BME280;64750;52.134;5.424;2023-02-18T10:13:21;101991.91;;;9.32;91.26
72086;BME280;64750;52.134;5.424;2023-02-18T10:15:49;101998.75;;;9.36;91.26
72086;BME280;64750;52.134;5.424;2023-02-18T10:18:29;101997.78;;;9.39;90.46
72086;BME280;64750;52.134;5.424;2023-02-18T10:21:13;101981.00;;;9.43;90.88
72086;BME280;64750;52.134;5.424;2023-02-18T10:23:49;101987.00;;;9.47;90.66
72086;BME280;64750;52.134;5.424;2023-02-18T10:26:19;101988.66;;;9.49;91.11
72086;BME280;64750;52.134;5.424;2023-02-18T10:28:46;101998.19;;;9.52;90.65
72086;BME280;64750;52.134;5.424;2023-02-18T10:31:18;101994.66;;;9.53;90.64
72086;BME280;64750;52.134;5.424;2023-02-18T10:36:34;102020.75;;;9.58;90.54
72086;BME280;64750;52.134;5.424;2023-02-18T10:39:16;101993.56;;;9.59;90.24
72086;BME280;64750;52.134;5.424;2023-02-18T10:41:59;101991.59;;;9.64;90.15
72086;BME280;64750;52.134;5.424;2023-02-18T10:44:43;102012.50;;;9.67;89.94
72086;BME280;64750;52.134;5.424;2023-02-18T10:49:58;102012.16;;;9.76;90.25
72086;BME280;64750;52.134;5.424;2023-02-18T10:52:29;102013.81;;;9.79;90.15
72086;BME280;64750;52.134;5.424;2023-02-18T10:55:06;102010.22;;;9.81;89.96
72086;BME280;64750;52.134;5.424;2023-02-18T10:57:44;102014.44;;;9.85;89.96
72086;BME280;64750;52.134;5.424;2023-02-18T11:00:22;102000.31;;;9.88;89.70
72086;BME280;64750;52.134;5.424;2023-02-18T11:03:21;102007.28;;;9.89;89.66
72086;BME280;64750;52.134;5.424;2023-02-18T11:05:51;102001.06;;;9.92;89.73
72086;BME280;64750;52.134;5.424;2023-02-18T11:08:24;102008.88;;;9.93;89.38
72086;BME280;64750;52.134;5.424;2023-02-18T11:10:52;102000.03;;;9.96;89.66
72086;BME280;64750;52.134;5.424;2023-02-18T11:13:29;101992.03;;;9.99;89.19
72086;BME280;64750;52.134;5.424;2023-02-18T11:16:01;102016.34;;;10.04;88.87
72086;BME280;64750;52.134;5.424;2023-02-18T11:21:50;102007.31;;;10.11;89.23
72086;BME280;64750;52.134;5.424;2023-02-18T11:23:53;101997.59;;;10.13;89.00
72086;BME280;64750;52.134;5.424;2023-02-18T11:26:27;101996.69;;;10.14;88.63
72086;BME280;64750;52.134;5.424;2023-02-18T11:28:59;101998.41;;;10.15;88.76
72086;BME280;64750;52.134;5.424;2023-02-18T11:31:38;102012.44;;;10.14;88.69
72086;BME280;64750;52.134;5.424;2023-02-18T11:34:14;101997.53;;;10.15;88.39
72086;BME280;64750;52.134;5.424;2023-02-18T11:36:41;102014.16;;;10.15;88.58
72086;BME280;64750;52.134;5.424;2023-02-18T11:39:44;102011.53;;;10.15;89.32
72086;BME280;64750;52.134;5.424;2023-02-18T11:42:13;102009.03;;;10.12;89.52
72086;BME280;64750;52.134;5.424;2023-02-18T11:44:47;102023.13;;;10.10;89.82
72086;BME280;64750;52.134;5.424;2023-02-18T11:49:42;102011.03;;;10.06;90.79
72086;BME280;64750;52.134;5.424;2023-02-18T11:52:39;102019.75;;;10.06;91.12
72086;BME280;64750;52.134;5.424;2023-02-18T11:55:21;102018.06;;;10.05;90.87
72086;BME280;64750;52.134;5.424;2023-02-18T12:05:50;102003.84;;;10.11;90.86
72086;BME280;64750;52.134;5.424;2023-02-18T12:08:24;102014.28;;;10.12;90.45
72086;BME280;64750;52.134;5.424;2023-02-18T12:10:56;102009.81;;;10.14;90.71
72086;BME280;64750;52.134;5.424;2023-02-18T12:13:29;102000.22;;;10.13;90.54
72086;BME280;64750;52.134;5.424;2023-02-18T12:21:50;102009.69;;;10.17;89.39
72086;BME280;64750;52.134;5.424;2023-02-18T12:44:03;101999.25;;;10.38;88.64
72086;BME280;64750;52.134;5.424;2023-02-18T12:47:24;102006.22;;;10.39;88.48
72086;BME280;64750;52.134;5.424;2023-02-18T12:52:11;102009.41;;;10.47;88.65
72086;BME280;64750;52.134;5.424;2023-02-18T12:54:53;102008.47;;;10.48;88.30
72086;BME280;64750;52.134;5.424;2023-02-18T12:57:47;101994.31;;;10.53;88.26
72086;BME280;64750;52.134;5.424;2023-02-18T13:03:19;102015.88;;;10.61;87.87
72086;BME280;64750;52.134;5.424;2023-02-18T13:11:30;102011.19;;;10.67;87.00
72086;BME280;64750;52.134;5.424;2023-02-18T13:14:02;102006.75;;;10.70;86.99
72086;BME280;64750;52.134;5.424;2023-02-18T13:16:30;102014.63;;;10.70;86.83
72086;BME280;64750;52.134;5.424;2023-02-18T13:19:01;102011.19;;;10.67;87.19
72086;BME280;64750;52.134;5.424;2023-02-18T13:21:29;102018.31;;;10.65;87.07
72086;BME280;64750;52.134;5.424;2023-02-18T13:24:06;102001.66;;;10.65;87.21
72086;BME280;64750;52.134;5.424;2023-02-18T13:26:35;102024.50;;;10.64;87.17
72086;BME280;64750;52.134;5.424;2023-02-18T13:34:36;102004.91;;;10.72;86.78
72086;BME280;64750;52.134;5.424;2023-02-18T13:37:14;102013.66;;;10.72;87.00
72086;BME280;64750;52.134;5.424;2023-02-18T13:39:50;102006.56;;;10.74;86.82
72086;BME280;64750;52.134;5.424;2023-02-18T13:42:23;102014.47;;;10.74;86.98
72086;BME280;64750;52.134;5.424;2023-02-18T13:58:12;102026.47;;;10.80;86.71
72086;BME280;64750;52.134;5.424;2023-02-18T14:00:47;102030.75;;;10.82;86.42
72086;BME280;64750;52.134;5.424;2023-02-18T14:03:34;102049.81;;;10.88;85.45
72086;BME280;64750;52.134;5.424;2023-02-18T14:06:04;102024.31;;;10.90;85.80
72086;BME280;64750;52.134;5.424;2023-02-18T14:08:38;102028.53;;;10.94;85.17
72086;BME280;64750;52.134;5.424;2023-02-18T14:11:31;102029.38;;;10.94;85.28
72086;BME280;64750;52.134;5.424;2023-02-18T14:16:24;102035.38;;;10.98;85.11
72086;BME280;64750;52.134;5.424;2023-02-18T14:18:57;102035.28;;;10.99;84.94
72086;BME280;64750;52.134;5.424;2023-02-18T14:21:41;102036.94;;;11.02;84.46
72086;BME280;64750;52.134;5.424;2023-02-18T14:24:10;102036.81;;;11.05;84.44
72086;BME280;64750;52.134;5.424;2023-02-18T14:26:42;102038.53;;;11.06;84.61
72086;BME280;64750;52.134;5.424;2023-02-18T14:29:13;102033.28;;;11.06;84.98
72086;BME280;64750;52.134;5.424;2023-02-18T14:32:03;102035.84;;;11.08;85.12
72086;BME280;64750;52.134;5.424;2023-02-18T14:35:03;102044.47;;;11.11;84.88
72086;BME280;64750;52.134;5.424;2023-02-18T14:37:36;102040.94;;;11.11;84.55
72086;BME280;64750;52.134;5.424;2023-02-18T14:40:25;102050.41;;;11.15;84.47
72086;BME280;64750;52.134;5.424;2023-02-18T14:43:05;102035.50;;;11.15;84.57
72086;BME280;64750;52.134;5.424;2023-02-18T14:51:19;102040.69;;;11.17;83.93
72086;BME280;64750;52.134;5.424;2023-02-18T14:53:46;102029.31;;;11.16;84.33
72086;BME280;64750;52.134;5.424;2023-02-18T14:56:16;102036.41;;;11.14;84.41
72086;BME280;64750;52.134;5.424;2023-02-18T14:58:49;102036.41;;;11.14;84.49
72086;BME280;64750;52.134;5.424;2023-02-18T15:01:23;102054.84;;;11.14;84.60
72086;BME280;64750;52.134;5.424;2023-02-18T15:03:52;102053.91;;;11.15;84.13
72086;BME280;64750;52.134;5.424;2023-02-18T15:11:46;102032.06;;;11.13;84.29
72086;BME280;64750;52.134;5.424;2023-02-18T15:14:39;102044.31;;;11.14;84.57
72086;BME280;64750;52.134;5.424;2023-02-18T15:17:13;102065.34;;;11.14;84.30
72086;BME280;64750;52.134;5.424;2023-02-18T15:19:46;102049.50;;;11.16;84.19